Time;durP1;ratioP1;P1;durP2;ratioP2;P2;SDS_P1;SDS_P2;PMS_P1;PMS_P2;Temp;Humidity;BMP_temperature;BMP_pressure;BME280_temperature;BME280_humidity;BME280_pressure;Samples;Min_cycle;Max_cycle;Signal;HPM_P1;HPM_P2
2022/08/13 00:02:17;;;;;;;21.63;14.48;;;18.20;99.90;;;;;;5077498;28;20064;-58
2022/08/13 00:04:56;;;;;;;24.85;15.38;;;18.20;99.90;;;;;;5077896;28;20082;-57
2022/08/13 00:07:22;;;;;;;24.38;15.20;;;18.10;99.90;;;;;;5077865;28;20032;-58
2022/08/13 00:09:49;;;;;;;39.10;17.25;;;18.10;99.90;;;;;;5075926;28;20021;-58
2022/08/13 00:15:18;;;;;;;24.73;17.35;;;18.20;99.90;;;;;;5077637;28;20020;-58
2022/08/13 00:17:48;;;;;;;25.40;16.58;;;18.20;99.90;;;;;;5077656;28;20139;-58
2022/08/13 00:20:15;;;;;;;31.88;17.95;;;18.20;99.90;;;;;;5077389;28;20370;-58
2022/08/13 00:22:40;;;;;;;32.83;18.17;;;18.20;99.90;;;;;;5077476;28;20025;-57
2022/08/13 00:25:08;;;;;;;29.20;18.00;;;18.10;99.90;;;;;;5077514;28;20538;-58
2022/08/13 00:27:34;;;;;;;26.90;18.98;;;18.10;99.90;;;;;;5077302;28;20071;-57
2022/08/13 00:30:01;;;;;;;29.20;18.90;;;18.10;99.90;;;;;;5077403;28;20032;-58
2022/08/13 00:32:30;;;;;;;27.17;18.27;;;18.20;99.90;;;;;;5077443;28;20029;-58
2022/08/13 00:35:03;;;;;;;28.63;18.83;;;18.10;99.90;;;;;;5077270;28;20055;-58
2022/08/13 00:37:28;;;;;;;28.02;19.95;;;18.10;99.90;;;;;;5077474;28;20040;-58
2022/08/13 00:39:54;;;;;;;27.85;19.50;;;18.10;99.90;;;;;;5077244;28;20078;-58
2022/08/13 00:42:22;;;;;;;27.35;19.65;;;18.00;99.90;;;;;;5077145;28;20021;-58
2022/08/13 00:44:48;;;;;;;31.25;21.42;;;18.10;99.90;;;;;;5077253;28;20103;-58
2022/08/13 00:50:00;;;;;;;35.80;18.52;;;17.90;99.90;;;;;;5077040;28;20110;-58
2022/08/13 00:52:31;;;;;;;31.88;19.63;;;18.00;99.90;;;;;;5076859;28;20374;-58
2022/08/13 00:55:03;;;;;;;30.63;20.67;;;17.90;99.90;;;;;;5077011;28;20106;-58
2022/08/13 00:57:29;;;;;;;28.27;20.98;;;18.00;99.90;;;;;;5077084;28;20496;-58
2022/08/13 00:59:55;;;;;;;30.42;19.40;;;18.00;99.90;;;;;;5076772;28;20094;-58
2022/08/13 01:02:23;;;;;;;28.38;18.40;;;18.00;99.90;;;;;;5075987;28;20082;-58
2022/08/13 01:04:49;;;;;;;27.55;18.35;;;17.90;99.90;;;;;;5076747;28;20019;-57
2022/08/13 01:07:18;;;;;;;30.13;18.30;;;17.90;99.90;;;;;;5076714;28;20470;-57
2022/08/13 01:09:45;;;;;;;29.67;17.60;;;18.00;99.90;;;;;;5075096;28;20021;-57
2022/08/13 01:12:13;;;;;;;26.60;19.05;;;17.90;99.90;;;;;;5076657;28;20037;-57
2022/08/13 01:14:40;;;;;;;26.60;18.70;;;17.90;99.90;;;;;;5076837;28;20111;-57
2022/08/13 01:17:07;;;;;;;29.27;17.80;;;17.90;99.90;;;;;;5076657;28;20021;-57
2022/08/13 01:19:34;;;;;;;26.20;17.10;;;17.90;99.90;;;;;;5076397;28;20481;-58
2022/08/13 01:22:00;;;;;;;24.83;16.25;;;18.00;99.90;;;;;;5076617;28;20396;-57
2022/08/13 01:24:28;;;;;;;23.10;15.52;;;18.00;99.90;;;;;;5076484;28;20031;-57
2022/08/13 01:26:57;;;;;;;25.13;14.90;;;18.10;99.90;;;;;;5076429;28;20634;-57
2022/08/13 01:29:24;;;;;;;18.70;14.32;;;17.90;99.90;;;;;;5076500;28;20432;-57
2022/08/13 01:31:51;;;;;;;21.58;15.20;;;17.90;99.90;;;;;;5076312;28;20032;-57
2022/08/13 01:34:18;;;;;;;21.42;15.15;;;18.00;99.90;;;;;;5076137;28;20036;-57
2022/08/13 01:36:49;;;;;;;25.40;17.25;;;18.00;99.90;;;;;;5076357;28;20115;-57
2022/08/13 01:39:15;;;;;;;;;;;17.90;99.90;;;;;;5076542;28;20390;-57
2022/08/13 01:41:41;;;;;;;23.48;15.60;;;17.90;99.90;;;;;;5076079;28;19919;-58
2022/08/13 01:44:07;;;;;;;24.25;16.17;;;17.90;99.90;;;;;;5076153;28;20422;-57
2022/08/13 01:52:09;;;;;;;25.35;17.38;;;17.90;99.90;;;;;;5075841;28;20036;-57
2022/08/13 01:54:37;;;;;;;24.90;18.00;;;17.90;99.90;;;;;;5075880;28;20028;-58
2022/08/13 01:57:06;;;;;;;25.58;18.42;;;17.90;99.90;;;;;;5075782;28;20359;-57
2022/08/13 01:59:37;;;;;;;28.73;19.13;;;17.90;99.90;;;;;;5080746;28;20044;-58
2022/08/13 02:02:05;;;;;;;26.35;18.77;;;17.90;99.90;;;;;;5102787;28;20088;-58
2022/08/13 02:04:32;;;;;;;26.83;18.42;;;17.90;99.90;;;;;;5130779;27;20047;-57
2022/08/13 02:07:00;;;;;;;24.90;17.83;;;17.90;99.90;;;;;;5130963;27;20068;-58
2022/08/13 02:09:27;;;;;;;24.70;17.02;;;17.90;99.90;;;;;;5131430;27;20114;-57
2022/08/13 02:11:53;;;;;;;29.73;18.83;;;17.80;99.90;;;;;;5122127;27;20039;-58
2022/08/13 02:14:21;;;;;;;24.45;17.20;;;17.80;99.90;;;;;;5109942;28;20075;-58
2022/08/13 02:16:47;;;;;;;27.20;18.42;;;17.90;99.90;;;;;;5109767;28;20172;-57
2022/08/13 02:19:13;;;;;;;26.20;18.58;;;17.90;99.90;;;;;;5107444;27;20064;-58
2022/08/13 02:21:44;;;;;;;28.73;18.67;;;17.80;99.90;;;;;;5130091;27;20042;-58
2022/08/13 02:24:13;;;;;;;;;;;17.80;99.90;;;;;;5089762;28;20447;-58
2022/08/13 02:26:42;;;;;;;28.35;20.48;;;17.70;99.90;;;;;;5022402;28;20044;-58
2022/08/13 02:29:09;;;;;;;24.50;19.58;;;17.70;99.90;;;;;;5029296;28;20123;-57
2022/08/13 02:31:36;;;;;;;31.70;21.38;;;17.80;99.90;;;;;;5092117;28;20039;-58
2022/08/13 02:34:03;;;;;;;29.20;21.40;;;17.70;99.90;;;;;;5128295;27;20062;-58
2022/08/13 02:36:30;;;;;;;35.30;22.58;;;17.70;99.90;;;;;;5130163;27;20047;-57
2022/08/13 02:39:05;;;;;;;33.88;22.15;;;17.80;99.90;;;;;;5124501;27;20484;-57
2022/08/13 02:41:43;;;;;;;43.45;28.05;;;17.80;99.90;;;;;;5096225;27;20427;-58
2022/08/13 02:44:14;;;;;;;32.38;23.05;;;17.90;99.90;;;;;;5106817;27;20419;-58
2022/08/13 02:46:43;;;;;;;39.63;24.30;;;17.80;99.90;;;;;;5106577;27;20497;-57
2022/08/13 02:49:10;;;;;;;46.13;28.90;;;17.80;99.90;;;;;;5093278;27;20046;-57
2022/08/13 02:51:38;;;;;;;45.78;28.92;;;17.80;99.90;;;;;;5106114;28;20063;-58
2022/08/13 02:54:06;;;;;;;47.70;28.58;;;17.90;99.90;;;;;;5103406;28;20052;-58
2022/08/13 02:56:33;;;;;;;43.47;28.15;;;17.90;99.90;;;;;;5092131;28;20043;-58
2022/08/13 02:58:59;;;;;;;46.65;29.92;;;17.80;99.90;;;;;;5106259;28;20046;-58
2022/08/13 03:01:26;;;;;;;50.35;27.83;;;17.80;99.90;;;;;;5045150;28;20228;-57
2022/08/13 03:03:55;;;;;;;47.58;27.00;;;17.90;99.90;;;;;;5076930;28;20070;-57
2022/08/13 03:06:22;;;;;;;54.50;28.80;;;17.90;99.90;;;;;;5089695;28;20044;-58
2022/08/13 03:08:51;;;;;;;47.95;28.55;;;17.80;99.90;;;;;;5094000;28;20044;-57
2022/08/13 03:11:18;;;;;;;47.30;28.90;;;17.70;99.90;;;;;;5100590;28;20424;-58
2022/08/13 03:13:53;;;;;;;46.80;28.92;;;17.90;99.90;;;;;;5102843;28;20489;-57
2022/08/13 03:16:23;;;;;;;42.00;25.42;;;17.90;99.90;;;;;;5091411;27;20044;-58
2022/08/13 03:18:49;;;;;;;42.90;25.97;;;17.80;99.90;;;;;;5098992;28;20078;-58
2022/08/13 03:21:19;;;;;;;40.60;25.13;;;17.90;99.90;;;;;;5085965;28;20043;-57
2022/08/13 03:23:46;;;;;;;42.20;24.75;;;17.90;99.90;;;;;;5052500;28;20114;-57
2022/08/13 03:26:13;;;;;;;37.28;24.38;;;17.80;99.90;;;;;;5089615;28;20047;-57
2022/08/13 03:28:39;;;;;;;34.90;22.90;;;17.90;99.90;;;;;;5093830;28;20075;-57
2022/08/13 03:31:06;;;;;;;35.40;23.48;;;17.90;99.90;;;;;;5098143;28;20039;-58
2022/08/13 03:33:32;;;;;;;39.97;26.17;;;17.90;99.90;;;;;;5098381;28;20396;-57
2022/08/13 03:35:58;;;;;;;38.78;24.10;;;17.80;99.90;;;;;;5095681;28;20058;-57
2022/08/13 03:38:24;;;;;;;34.78;23.08;;;17.70;99.90;;;;;;5096707;28;20047;-58
2022/08/13 03:41:02;;;;;;;38.13;24.00;;;17.70;99.90;;;;;;5078986;28;20048;-57
2022/08/13 03:43:30;;;;;;;37.10;23.15;;;17.70;99.90;;;;;;5074413;28;20503;-57
2022/08/13 03:46:00;;;;;;;40.50;23.98;;;17.70;99.90;;;;;;5077206;28;20044;-57
2022/08/13 03:48:27;;;;;;;39.80;24.93;;;17.60;99.90;;;;;;5095935;28;20052;-58
2022/08/13 03:50:53;;;;;;;40.80;24.50;;;17.60;99.90;;;;;;5085004;28;20024;-57
2022/08/13 03:53:23;;;;;;;41.63;25.80;;;17.60;99.90;;;;;;4767676;28;1298033;-57
2022/08/13 03:55:49;;;;;;;44.97;26.00;;;17.60;99.90;;;;;;4969775;28;20492;-57
2022/08/13 03:58:15;;;;;;;49.17;27.73;;;17.60;99.90;;;;;;5001033;28;20076;-57
2022/08/13 04:00:47;;;;;;;45.72;27.15;;;17.70;99.90;;;;;;5038780;28;20037;-57
2022/08/13 04:03:20;;;;;;;44.08;26.85;;;17.70;99.90;;;;;;5012213;28;20056;-57
2022/08/13 04:05:54;;;;;;;45.20;27.35;;;17.70;99.90;;;;;;5024564;28;20041;-57
2022/08/13 04:08:20;;;;;;;40.25;25.02;;;17.60;99.90;;;;;;4883760;28;20060;-57
2022/08/13 04:10:48;;;;;;;44.10;25.05;;;17.60;99.90;;;;;;5006609;28;20082;-57
2022/08/13 04:13:15;;;;;;;49.80;27.70;;;17.60;99.90;;;;;;5092377;28;20126;-57
2022/08/13 04:15:43;;;;;;;59.58;32.25;;;17.60;99.90;;;;;;5052751;28;20478;-57
2022/08/13 04:18:11;;;;;;;104.13;47.47;;;17.70;99.90;;;;;;5083683;28;20480;-58
2022/08/13 04:23:17;;;;;;;87.65;43.35;;;17.70;99.90;;;;;;5092034;28;20436;-58
2022/08/13 04:25:46;;;;;;;114.68;51.72;;;17.70;99.90;;;;;;5092087;28;20046;-58
2022/08/13 04:28:14;;;;;;;98.18;46.78;;;17.80;99.90;;;;;;5090641;28;20473;-58
2022/08/13 04:30:44;;;;;;;105.57;45.42;;;17.80;99.90;;;;;;5092020;28;20103;-58
2022/08/13 04:33:15;;;;;;;111.37;50.60;;;17.80;99.90;;;;;;5091897;28;20059;-58
2022/08/13 04:35:43;;;;;;;115.03;49.25;;;17.70;99.90;;;;;;5090591;28;20260;-58
2022/08/13 04:38:09;;;;;;;122.68;47.15;;;17.70;99.90;;;;;;5090585;28;20043;-58
2022/08/13 04:40:38;;;;;;;111.57;47.28;;;17.70;99.90;;;;;;5091801;28;20040;-58
2022/08/13 04:43:06;;;;;;;101.85;44.45;;;17.70;99.90;;;;;;5091874;28;20032;-58
2022/08/13 04:45:32;;;;;;;99.30;42.08;;;17.70;99.90;;;;;;5090488;28;20028;-58
2022/08/13 04:48:03;;;;;;;105.03;43.70;;;17.70;99.90;;;;;;5107483;28;20036;-58
2022/08/13 04:50:33;;;;;;;115.97;49.33;;;17.70;99.90;;;;;;5073677;28;20041;-58
2022/08/13 04:53:00;;;;;;;108.13;44.43;;;17.80;99.90;;;;;;5090311;28;20032;-58
2022/08/13 04:55:27;;;;;;;107.93;45.03;;;17.80;99.90;;;;;;5091434;28;20036;-58
2022/08/13 04:57:53;;;;;;;118.03;48.92;;;17.80;99.90;;;;;;5090168;28;20462;-58
2022/08/13 05:00:20;;;;;;;123.90;48.78;;;17.70;99.90;;;;;;5091143;28;20035;-58
2022/08/13 05:02:46;;;;;;;132.13;51.95;;;17.70;99.90;;;;;;5106900;28;20565;-58
2022/08/13 05:05:14;;;;;;;131.20;49.70;;;17.70;99.90;;;;;;5091412;28;20021;-58
2022/08/13 05:07:43;;;;;;;135.93;51.05;;;17.80;99.90;;;;;;5091152;28;20021;-58
2022/08/13 05:10:09;;;;;;;134.35;51.58;;;17.90;99.90;;;;;;5097363;28;20031;-58
2022/08/13 05:12:36;;;;;;;142.77;52.10;;;17.80;99.90;;;;;;5111517;28;20096;-58
2022/08/13 05:15:03;;;;;;;130.95;44.83;;;17.80;99.90;;;;;;5111307;28;20032;-58
2022/08/13 05:17:30;;;;;;;114.97;46.22;;;17.80;99.90;;;;;;5111414;28;20039;-58
2022/08/13 05:19:56;;;;;;;111.97;43.25;;;17.80;99.90;;;;;;5111432;28;20032;-58
2022/08/13 05:22:23;;;;;;;115.15;46.53;;;17.90;99.90;;;;;;5111061;28;20035;-58
2022/08/13 05:24:50;;;;;;;131.32;47.25;;;17.90;99.90;;;;;;5111336;28;20063;-58
2022/08/13 05:27:17;;;;;;;137.55;49.78;;;18.00;99.90;;;;;;5111375;28;20122;-58
2022/08/13 05:29:43;;;;;;;126.97;49.25;;;18.00;99.90;;;;;;5111035;28;20112;-58
2022/08/13 05:32:10;;;;;;;130.07;49.60;;;18.00;99.90;;;;;;5111278;28;20520;-58
2022/08/13 05:34:37;;;;;;;92.90;38.22;;;18.00;99.90;;;;;;5096507;28;20027;-58
2022/08/13 05:37:06;;;;;;;92.82;40.88;;;18.10;99.90;;;;;;5079386;28;20052;-59
2022/08/13 05:39:33;;;;;;;90.90;39.03;;;18.10;99.90;;;;;;5097493;28;20039;-58
2022/08/13 05:41:59;;;;;;;71.07;34.47;;;18.10;99.90;;;;;;5097117;28;20036;-58
2022/08/13 05:44:25;;;;;;;84.93;38.28;;;18.10;99.90;;;;;;5096085;28;20050;-58
2022/08/13 05:46:52;;;;;;;84.63;37.75;;;18.10;99.90;;;;;;5095991;28;20111;-58
2022/08/13 05:49:18;;;;;;;78.45;35.00;;;18.20;99.90;;;;;;5097171;28;20020;-58
2022/08/13 05:51:44;;;;;;;86.68;39.33;;;18.20;99.90;;;;;;5097082;28;20054;-58
2022/08/13 05:54:11;;;;;;;96.38;39.50;;;18.20;99.90;;;;;;5097236;28;20035;-58
2022/08/13 05:56:38;;;;;;;138.80;50.33;;;18.20;99.90;;;;;;5097023;28;20097;-58
2022/08/13 05:59:05;;;;;;;141.10;50.63;;;18.20;99.90;;;;;;5097177;28;20028;-58
2022/08/13 06:04:19;;;;;;;139.98;51.40;;;18.10;99.90;;;;;;5096611;28;20031;-58
2022/08/13 06:06:47;;;;;;;140.18;51.58;;;18.20;99.90;;;;;;5095684;28;20080;-58
2022/08/13 06:09:13;;;;;;;117.00;45.20;;;18.20;99.90;;;;;;5097083;28;20131;-58
2022/08/13 06:11:42;;;;;;;97.93;39.92;;;18.20;99.90;;;;;;5095547;28;20039;-58
2022/08/13 06:14:16;;;;;;;90.97;39.03;;;18.20;99.90;;;;;;5096907;28;20024;-58
2022/08/13 06:16:44;;;;;;;103.05;40.42;;;18.20;99.90;;;;;;5095412;28;20035;-58
2022/08/13 06:19:12;;;;;;;87.53;37.28;;;18.30;99.90;;;;;;5096709;28;20103;-58
2022/08/13 06:21:39;;;;;;;69.60;33.28;;;18.30;99.90;;;;;;5096316;28;20052;-58
2022/08/13 06:24:05;;;;;;;67.30;33.70;;;18.30;99.90;;;;;;5080094;28;20447;-58
2022/08/13 06:26:31;;;;;;;65.68;32.85;;;18.30;99.90;;;;;;5058628;28;20033;-58
2022/08/13 06:28:59;;;;;;;55.13;29.80;;;18.40;99.90;;;;;;5072414;28;20032;-58
2022/08/13 06:31:30;;;;;;;57.97;30.55;;;18.30;99.90;;;;;;5075935;28;20083;-58
2022/08/13 06:33:56;;;;;;;51.05;29.30;;;18.30;99.90;;;;;;5074560;28;20031;-58
2022/08/13 06:36:28;;;;;;;57.60;32.08;;;18.30;99.90;;;;;;5076055;28;20115;-58
2022/08/13 06:38:56;;;;;;;54.63;31.52;;;18.20;99.90;;;;;;5074692;28;20082;-58
2022/08/13 06:41:23;;;;;;;51.38;27.60;;;18.30;99.90;;;;;;5074496;28;20245;-58
2022/08/13 06:43:52;;;;;;;50.78;30.85;;;18.30;99.90;;;;;;5074724;28;20032;-58
2022/08/13 06:46:24;;;;;;;57.53;30.73;;;18.40;99.90;;;;;;5074812;28;20028;-58
2022/08/13 06:48:51;;;;;;;60.00;32.25;;;18.40;99.90;;;;;;5073633;28;20081;-58
2022/08/13 06:51:17;;;;;;;52.97;30.60;;;18.50;99.90;;;;;;5074494;28;20055;-58
2022/08/13 06:53:45;;;;;;;58.92;32.67;;;18.70;99.90;;;;;;5074166;28;20085;-58
2022/08/13 06:56:22;;;;;;;50.10;30.88;;;18.70;99.90;;;;;;5075792;28;20036;-58
2022/08/13 06:58:51;;;;;;;53.35;29.85;;;18.90;99.90;;;;;;5074215;28;20028;-58
2022/08/13 07:01:24;;;;;;;67.13;34.97;;;19.10;99.90;;;;;;5074451;28;20040;-58
2022/08/13 07:03:50;;;;;;;58.45;30.95;;;19.30;99.90;;;;;;5075369;28;20043;-58
2022/08/13 07:06:19;;;;;;;60.85;31.13;;;19.30;99.90;;;;;;5074012;28;20040;-58
2022/08/13 07:08:46;;;;;;;59.85;31.77;;;19.60;99.90;;;;;;5073904;28;20628;-58
2022/08/13 07:11:22;;;;;;;62.20;29.98;;;19.60;99.90;;;;;;5089940;28;20035;-58
2022/08/13 07:13:52;;;;;;;62.58;30.15;;;19.70;99.90;;;;;;5095278;28;20081;-58
2022/08/13 07:16:27;;;;;;;62.30;29.60;;;19.70;99.90;;;;;;5077413;28;20094;-58
2022/08/13 07:18:53;;;;;;;67.55;31.60;;;19.80;99.90;;;;;;5064850;28;20052;-58
2022/08/13 07:21:24;;;;;;;71.97;33.35;;;19.80;99.90;;;;;;5071700;28;20036;-58
2022/08/13 07:23:51;;;;;;;76.63;35.83;;;19.90;99.90;;;;;;5075125;28;20131;-58
2022/08/13 07:26:19;;;;;;;77.72;38.42;;;19.70;99.90;;;;;;5073872;28;20033;-58
2022/08/13 07:28:47;;;;;;;119.38;49.25;;;19.70;99.90;;;;;;5074056;28;20062;-58
2022/08/13 07:31:14;;;;;;;132.02;51.22;;;19.60;99.90;;;;;;5073431;28;20359;-58
2022/08/13 07:33:43;;;;;;;163.27;57.65;;;19.60;99.90;;;;;;5074745;28;20067;-58
2022/08/13 07:36:12;;;;;;;171.55;61.10;;;19.60;99.90;;;;;;5074835;28;20103;-58
2022/08/13 07:38:39;;;;;;;182.43;61.17;;;19.70;99.90;;;;;;5075156;28;20481;-58
2022/08/13 07:41:05;;;;;;;213.10;70.75;;;19.90;99.90;;;;;;5073367;28;20107;-58
2022/08/13 07:43:34;;;;;;;277.08;90.90;;;20.10;99.90;;;;;;5073386;28;20103;-58
2022/08/13 07:46:05;;;;;;;304.73;94.25;;;20.20;99.90;;;;;;5074677;28;20032;-58
2022/08/13 07:48:32;;;;;;;274.98;87.07;;;20.30;99.90;;;;;;5074394;28;20032;-58
2022/08/13 07:51:05;;;;;;;265.33;88.53;;;20.20;99.90;;;;;;5073323;28;20394;-58
2022/08/13 07:53:34;;;;;;;233.68;74.15;;;20.40;99.90;;;;;;5073194;28;20496;-58
2022/08/13 07:56:01;;;;;;;217.70;69.40;;;20.50;99.90;;;;;;5073124;28;20607;-58
2022/08/13 07:58:30;;;;;;;178.95;62.20;;;20.70;99.90;;;;;;5074437;28;20028;-58
2022/08/13 08:00:59;;;;;;;178.43;63.00;;;21.00;99.90;;;;;;5074457;28;20025;-58
2022/08/13 08:03:32;;;;;;;154.82;54.83;;;21.40;99.90;;;;;;5074888;28;20028;-58
2022/08/13 08:06:00;;;;;;;138.65;52.65;;;21.50;99.90;;;;;;5072894;28;20040;-58
2022/08/13 08:08:26;;;;;;;140.52;55.88;;;21.80;99.90;;;;;;5074611;28;20138;-58
2022/08/13 08:10:54;;;;;;;127.18;56.10;;;22.30;99.90;;;;;;5076542;28;20373;-58
2022/08/13 08:13:20;;;;;;;112.30;52.28;;;22.80;99.90;;;;;;5074176;28;20032;-58
2022/08/13 08:15:46;;;;;;;171.65;77.70;;;23.00;99.90;;;;;;5074551;28;20039;-58
2022/08/13 08:18:13;;;;;;;135.07;61.03;;;22.90;99.90;;;;;;5074333;28;20031;-58
2022/08/13 08:20:42;;;;;;;124.78;54.67;;;23.00;99.90;;;;;;5074392;28;20043;-58
2022/08/13 08:23:10;;;;;;;121.85;50.45;;;23.10;99.90;;;;;;5074245;28;20047;-58
2022/08/13 08:25:38;;;;;;;126.90;53.08;;;23.30;98.90;;;;;;5074316;28;20378;-58
2022/08/13 08:28:04;;;;;;;105.63;47.70;;;23.70;98.80;;;;;;5074358;28;20032;-58
2022/08/13 08:30:30;;;;;;;100.95;45.80;;;23.50;97.80;;;;;;5073093;28;20032;-58
2022/08/13 08:32:56;;;;;;;106.28;46.58;;;24.00;96.80;;;;;;5074100;28;20029;-58
2022/08/13 08:35:23;;;;;;;91.63;43.58;;;24.50;95.90;;;;;;5074625;28;20025;-58
2022/08/13 08:43:33;;;;;;;72.57;39.97;;;24.90;95.60;;;;;;5072897;28;20090;-59
2022/08/13 08:46:01;;;;;;;72.28;36.15;;;25.80;93.30;;;;;;5074164;28;20032;-59
2022/08/13 08:48:29;;;;;;;80.70;39.78;;;26.30;88.40;;;;;;5073889;28;20489;-59
2022/08/13 08:50:56;;;;;;;76.53;38.38;;;25.20;85.20;;;;;;5074468;28;20540;-59
2022/08/13 08:53:24;;;;;;;73.25;38.97;;;25.70;87.90;;;;;;5074132;28;20025;-59
2022/08/13 08:55:51;;;;;;;74.88;36.95;;;25.10;91.60;;;;;;5073897;28;20470;-59
2022/08/13 08:58:19;;;;;;;70.63;37.25;;;25.50;84.80;;;;;;5074043;28;20386;-59
2022/08/13 09:00:47;;;;;;;75.20;39.00;;;26.00;83.30;;;;;;5073907;28;20036;-59
2022/08/13 09:03:18;;;;;;;65.85;35.13;;;26.10;81.30;;;;;;5073682;28;20104;-59
2022/08/13 09:05:48;;;;;;;52.03;29.05;;;26.10;84.20;;;;;;5072849;28;20033;-59
2022/08/13 09:08:17;;;;;;;47.42;28.42;;;25.90;82.20;;;;;;5073165;28;20466;-59
2022/08/13 09:10:46;;;;;;;52.30;28.83;;;25.90;90.20;;;;;;5088407;28;20020;-59
2022/08/13 09:13:19;;;;;;;51.90;28.88;;;26.10;82.80;;;;;;5096775;28;20027;-59
2022/08/13 09:15:48;;;;;;;52.65;28.42;;;25.80;83.00;;;;;;5097764;28;20035;-59
2022/08/13 09:18:18;;;;;;;49.20;28.02;;;25.60;84.70;;;;;;5097882;28;20020;-59
2022/08/13 09:20:45;;;;;;;43.00;23.85;;;25.10;90.10;;;;;;5096439;28;20032;-59
2022/08/13 09:23:13;;;;;;;50.72;26.77;;;25.20;90.00;;;;;;5097368;28;20048;-59
2022/08/13 09:25:51;;;;;;;48.95;28.27;;;25.50;90.30;;;;;;5097766;28;20024;-59
2022/08/13 09:28:26;;;;;;;52.92;26.02;;;25.40;87.50;;;;;;5096224;28;20036;-60
2022/08/13 09:30:54;;;;;;;49.55;26.30;;;25.50;86.90;;;;;;5097822;28;20024;-59
2022/08/13 09:33:23;;;;;;;53.17;31.33;;;25.20;83.70;;;;;;5096233;28;20032;-59
2022/08/13 09:35:51;;;;;;;46.75;27.70;;;25.50;85.10;;;;;;5097419;28;20280;-59
2022/08/13 09:38:21;;;;;;;46.83;28.00;;;25.50;85.00;;;;;;5097449;28;20036;-60
2022/08/13 09:40:59;;;;;;;53.72;29.92;;;25.90;89.40;;;;;;5097457;28;20027;-59
2022/08/13 09:43:39;;;;;;;50.03;27.02;;;26.10;86.70;;;;;;5079714;28;20036;-59
2022/08/13 09:46:07;;;;;;;49.35;26.52;;;26.50;83.70;;;;;;5097182;28;20030;-59
2022/08/13 09:48:33;;;;;;;49.55;26.42;;;26.60;77.10;;;;;;5097257;28;20024;-60
2022/08/13 09:51:02;;;;;;;44.25;26.02;;;26.40;79.10;;;;;;5095976;28;20047;-60
2022/08/13 09:53:29;;;;;;;35.58;20.40;;;25.70;81.70;;;;;;5097000;28;20089;-59
2022/08/13 09:55:56;;;;;;;37.47;21.17;;;25.70;78.00;;;;;;5096103;28;20035;-59
2022/08/13 09:58:25;;;;;;;37.05;20.52;;;26.00;81.80;;;;;;5096946;28;20424;-60
2022/08/13 10:00:52;;;;;;;34.47;19.73;;;25.70;81.50;;;;;;5096917;28;20157;-60
2022/08/13 10:03:18;;;;;;;46.53;21.98;;;25.80;81.80;;;;;;5095699;28;20465;-60
2022/08/13 10:05:47;;;;;;;30.42;18.83;;;26.10;80.90;;;;;;5096747;28;20119;-59
2022/08/13 10:08:16;;;;;;;29.33;17.80;;;26.60;80.50;;;;;;5096846;28;20095;-59
2022/08/13 10:10:44;;;;;;;29.75;18.50;;;26.40;77.30;;;;;;5093901;28;20142;-59
2022/08/13 10:13:11;;;;;;;25.55;15.65;;;26.90;79.20;;;;;;5097147;28;20127;-59
2022/08/13 10:15:38;;;;;;;22.58;15.25;;;26.90;70.50;;;;;;5096948;28;20024;-59
2022/08/13 10:18:04;;;;;;;23.60;15.05;;;27.40;69.00;;;;;;5095451;28;20055;-59
2022/08/13 10:20:36;;;;;;;24.65;17.23;;;27.80;68.50;;;;;;5078345;28;20024;-60
2022/08/13 10:23:08;;;;;;;25.23;15.27;;;28.00;72.80;;;;;;5095070;28;20046;-59
2022/08/13 10:25:37;;;;;;;22.55;14.27;;;28.30;63.30;;;;;;5096522;28;20020;-59
2022/08/13 10:28:31;;;;;;;28.55;15.93;;;27.80;65.40;;;;;;5095280;28;20020;-60
2022/08/13 10:31:02;;;;;;;26.85;18.27;;;27.70;65.30;;;;;;5096531;28;20048;-60
2022/08/13 10:33:28;;;;;;;25.95;15.93;;;27.50;70.00;;;;;;5096469;28;20028;-59
2022/08/13 10:35:55;;;;;;;24.70;15.43;;;26.70;68.70;;;;;;5096235;28;20107;-60
2022/08/13 10:38:26;;;;;;;21.33;14.77;;;25.70;70.10;;;;;;5095417;28;20032;-60
2022/08/13 10:40:56;;;;;;;28.58;15.30;;;26.00;71.00;;;;;;5095014;28;20031;-59
2022/08/13 10:43:23;;;;;;;26.00;16.10;;;26.20;70.40;;;;;;5094949;28;20481;-60
2022/08/13 10:45:50;;;;;;;20.58;14.43;;;26.70;74.10;;;;;;5096230;28;20024;-60
2022/08/13 10:48:17;;;;;;;20.27;14.05;;;27.20;71.90;;;;;;5096016;28;20512;-60
2022/08/13 10:50:43;;;;;;;23.20;14.70;;;27.50;68.30;;;;;;5096123;28;20028;-60
2022/08/13 10:53:55;;;;;;;23.55;14.50;;;27.10;65.10;;;;;;5096242;28;20036;-60
2022/08/13 10:55:56;;;;;;;23.73;15.07;;;25.60;69.80;;;;;;5095881;28;20036;-59
2022/08/13 10:58:22;;;;;;;23.05;15.15;;;25.80;74.90;;;;;;5096208;28;20024;-60
2022/08/13 11:00:48;;;;;;;20.00;13.55;;;25.90;72.10;;;;;;5095773;28;20038;-60
2022/08/13 11:03:15;;;;;;;27.35;16.15;;;26.10;72.30;;;;;;5095941;28;20224;-60
2022/08/13 11:05:41;;;;;;;24.92;16.65;;;26.50;71.10;;;;;;5095872;28;20097;-60
2022/08/13 11:08:07;;;;;;;18.15;13.45;;;26.70;74.30;;;;;;5094546;28;20025;-60
2022/08/13 11:10:35;;;;;;;21.40;13.85;;;26.50;70.40;;;;;;5092716;28;20046;-60
2022/08/13 11:13:00;;;;;;;14.55;12.10;;;26.50;72.30;;;;;;5094596;28;20028;-60
2022/08/13 11:15:26;;;;;;;16.95;12.93;;;26.60;73.20;;;;;;5094161;28;20552;-60
2022/08/13 11:17:53;;;;;;;13.70;10.57;;;26.50;75.40;;;;;;5095566;28;20085;-60
2022/08/13 11:20:22;;;;;;;14.57;10.57;;;26.10;72.50;;;;;;5094439;28;20028;-60
2022/08/13 11:22:54;;;;;;;15.13;10.85;;;25.90;75.30;;;;;;5093896;28;20454;-60
2022/08/13 11:25:20;;;;;;;12.90;10.52;;;26.00;75.10;;;;;;5095493;28;20108;-60
2022/08/13 11:27:47;;;;;;;24.58;12.68;;;25.90;77.20;;;;;;5095427;28;20133;-59
2022/08/13 11:30:14;;;;;;;16.75;11.70;;;25.50;75.90;;;;;;5095211;28;20031;-59
2022/08/13 11:32:41;;;;;;;12.70;10.02;;;25.60;81.10;;;;;;5093462;28;20059;-60
2022/08/13 11:35:08;;;;;;;16.70;10.73;;;25.60;77.80;;;;;;5094132;28;20031;-60
2022/08/13 11:37:35;;;;;;;13.65;10.88;;;25.70;77.60;;;;;;5093858;28;20024;-60
2022/08/13 11:40:03;;;;;;;21.52;11.15;;;25.80;78.70;;;;;;5093689;28;20039;-60
2022/08/13 11:42:30;;;;;;;13.75;11.00;;;25.60;76.90;;;;;;5093709;28;20554;-59
2022/08/13 11:44:56;;;;;;;12.60;9.85;;;25.50;79.20;;;;;;5094190;28;20030;-60
2022/08/13 11:47:23;;;;;;;15.52;10.75;;;25.00;77.00;;;;;;5095047;28;20111;-60
2022/08/13 11:49:49;;;;;;;12.60;10.77;;;24.90;78.90;;;;;;5094963;28;20040;-59
2022/08/13 11:52:15;;;;;;;14.38;10.98;;;25.30;77.50;;;;;;5094789;28;20031;-60
2022/08/13 11:54:40;;;;;;;18.50;11.98;;;25.40;78.00;;;;;;5095076;28;20110;-59
2022/08/13 11:57:07;;;;;;;16.52;11.50;;;25.10;78.50;;;;;;5094843;28;20038;-59
2022/08/13 11:59:33;;;;;;;12.95;11.57;;;25.80;81.10;;;;;;5094684;28;20024;-60
2022/08/13 12:01:59;;;;;;;14.60;12.05;;;26.50;79.60;;;;;;5094880;28;20036;-59
2022/08/13 12:04:26;;;;;;;15.20;11.02;;;26.80;71.40;;;;;;5094981;28;20035;-59
2022/08/13 12:06:51;;;;;;;11.80;10.60;;;26.90;69.60;;;;;;5093429;28;20454;-60
2022/08/13 12:09:19;;;;;;;15.13;11.02;;;27.20;68.30;;;;;;5094603;28;20066;-60
2022/08/13 12:11:45;;;;;;;15.35;11.40;;;27.50;67.70;;;;;;5094052;28;20047;-60
2022/08/13 12:14:11;;;;;;;18.88;10.60;;;27.30;67.40;;;;;;5094556;28;20473;-60
2022/08/13 12:16:37;;;;;;;23.08;15.18;;;27.60;71.10;;;;;;5094819;28;20028;-60
2022/08/13 12:19:03;;;;;;;11.93;9.68;;;27.10;68.40;;;;;;5094583;28;20034;-60
2022/08/13 12:21:29;;;;;;;12.13;10.38;;;27.00;68.00;;;;;;5094259;28;20048;-60
2022/08/13 12:23:54;;;;;;;11.13;9.23;;;26.90;72.00;;;;;;5094655;28;20032;-60
2022/08/13 12:26:20;;;;;;;26.08;11.75;;;27.20;70.20;;;;;;5094398;28;20544;-60
2022/08/13 12:28:46;;;;;;;19.42;10.73;;;27.40;70.80;;;;;;5094255;28;20024;-60
2022/08/13 12:31:14;;;;;;;15.90;11.10;;;27.20;67.90;;;;;;5094537;28;20032;-60
2022/08/13 12:33:40;;;;;;;15.73;12.00;;;26.90;71.00;;;;;;5094774;28;20103;-60
2022/08/13 12:36:08;;;;;;;17.75;12.07;;;26.60;72.10;;;;;;5094289;28;20107;-60
2022/08/13 12:38:33;;;;;;;11.93;10.60;;;26.20;75.10;;;;;;5094426;28;20484;-60
2022/08/13 12:41:00;;;;;;;13.95;11.32;;;26.30;75.20;;;;;;5094348;28;20142;-60
2022/08/13 12:43:27;;;;;;;14.38;10.18;;;26.10;77.10;;;;;;5095440;28;20110;-60
2022/08/13 12:45:53;;;;;;;9.90;9.00;;;26.00;76.60;;;;;;5098719;28;20044;-60
2022/08/13 12:48:19;;;;;;;16.65;11.25;;;25.90;80.10;;;;;;5098233;28;20047;-60
2022/08/13 12:50:47;;;;;;;14.25;9.98;;;25.80;77.00;;;;;;5098478;28;20119;-60
2022/08/13 12:53:15;;;;;;;12.13;9.65;;;25.80;80.10;;;;;;5098356;28;20063;-60